createdAt,value
2023-04-18T00:01:45.804Z,7.16
2023-04-18T00:04:14.159Z,7.08
2023-04-18T00:06:41.242Z,7.08
2023-04-18T00:09:08.102Z,7.03
2023-04-18T00:11:35.225Z,6.99
2023-04-18T00:14:03.468Z,7.00
2023-04-18T00:16:30.667Z,6.98
2023-04-18T00:18:57.616Z,6.99
2023-04-18T00:21:25.790Z,6.98
2023-04-18T00:23:52.793Z,7.01
2023-04-18T00:26:19.704Z,7.02
2023-04-18T00:28:46.490Z,7.02
2023-04-18T00:31:13.390Z,7.05
2023-04-18T00:33:40.487Z,7.07
2023-04-18T00:36:07.476Z,7.06
2023-04-18T00:38:34.269Z,7.05
2023-04-18T00:41:01.073Z,7.07
2023-04-18T00:43:28.261Z,7.13
2023-04-18T00:45:57.227Z,7.10
2023-04-18T00:48:24.097Z,7.12
2023-04-18T00:50:50.901Z,7.15
2023-04-18T00:53:17.673Z,7.13
2023-04-18T00:55:44.460Z,7.15
2023-04-18T00:58:11.596Z,7.16
2023-04-18T01:00:38.401Z,7.16
2023-04-18T01:03:06.858Z,7.15
2023-04-18T01:05:35.206Z,7.19
2023-04-18T01:08:02.551Z,7.22
2023-04-18T01:10:29.980Z,7.19
2023-04-18T01:13:16.095Z,7.26
2023-04-18T01:15:43.859Z,7.25
2023-04-18T01:18:11.801Z,7.26
2023-04-18T01:20:41.496Z,7.28
2023-04-18T01:23:10.457Z,7.29
2023-04-18T01:25:37.515Z,7.32
2023-04-18T01:28:05.086Z,7.32
2023-04-18T01:30:33.028Z,7.31
2023-04-18T01:33:04.074Z,7.31
2023-04-18T01:35:31.483Z,7.33
2023-04-18T01:37:58.466Z,7.31
2023-04-18T01:40:25.407Z,7.35
2023-04-18T01:42:52.276Z,7.35
2023-04-18T01:45:19.740Z,7.37
2023-04-18T01:47:47.015Z,7.34
2023-04-18T01:50:13.990Z,7.35
2023-04-18T01:52:41.396Z,7.34
2023-04-18T01:55:08.636Z,7.32
2023-04-18T01:57:36.891Z,7.36
2023-04-18T02:00:06.773Z,7.37
2023-04-18T02:02:34.181Z,7.31
2023-04-18T02:05:01.293Z,7.35
2023-04-18T02:07:28.101Z,7.36
2023-04-18T02:09:55.179Z,7.36
2023-04-18T02:12:22.019Z,7.40
2023-04-18T02:14:51.832Z,7.39
2023-04-18T02:17:19.567Z,7.39
2023-04-18T02:19:46.716Z,7.41
2023-04-18T02:22:13.523Z,7.40
2023-04-18T02:24:40.332Z,7.38
2023-04-18T02:27:07.110Z,7.37
2023-04-18T02:29:34.047Z,7.37
2023-04-18T02:32:01.087Z,7.43
2023-04-18T02:34:27.894Z,7.38
2023-04-18T02:36:54.690Z,7.40
2023-04-18T02:39:21.600Z,7.41
2023-04-18T02:41:48.476Z,7.44
2023-04-18T02:44:15.487Z,7.44
2023-04-18T02:46:42.373Z,7.44
2023-04-18T02:49:09.171Z,7.37
2023-04-18T02:51:36.017Z,7.41
2023-04-18T02:54:02.915Z,7.39
2023-04-18T02:56:29.746Z,7.39
2023-04-18T02:58:56.667Z,7.41
2023-04-18T03:01:23.485Z,7.35
2023-04-18T03:03:50.450Z,7.41
2023-04-18T03:06:17.232Z,7.38
2023-04-18T03:08:44.056Z,7.43
2023-04-18T03:11:10.865Z,7.36
2023-04-18T03:13:37.660Z,7.41
2023-04-18T03:16:04.925Z,7.39
2023-04-18T03:18:31.751Z,7.38
2023-04-18T03:20:58.602Z,7.38
2023-04-18T03:23:25.377Z,7.39
2023-04-18T03:25:52.109Z,7.40
2023-04-18T03:28:18.897Z,7.30
2023-04-18T03:30:45.731Z,7.35
2023-04-18T03:33:14.498Z,7.37
2023-04-18T03:35:41.360Z,7.30
2023-04-18T03:38:08.098Z,7.30
2023-04-18T03:40:34.891Z,7.30
2023-04-18T03:43:01.733Z,7.26
2023-04-18T03:45:28.643Z,7.22
2023-04-18T03:47:55.500Z,7.16
2023-04-18T03:50:22.294Z,7.14
2023-04-18T03:52:49.085Z,7.11
2023-04-18T03:55:15.983Z,7.10
2023-04-18T03:57:42.753Z,7.14
2023-04-18T04:00:10.484Z,7.17
2023-04-18T04:02:37.387Z,7.24
2023-04-18T04:05:05.193Z,7.26
2023-04-18T04:07:32.260Z,7.34
2023-04-18T04:09:59.036Z,7.41
2023-04-18T04:12:25.885Z,7.38
2023-04-18T04:14:52.729Z,7.37
2023-04-18T04:17:19.576Z,7.29
2023-04-18T04:19:46.417Z,7.31
2023-04-18T04:22:13.576Z,7.24
2023-04-18T04:24:40.537Z,7.29
2023-04-18T04:27:08.186Z,7.29
2023-04-18T04:29:36.187Z,7.44
2023-04-18T04:32:05.748Z,7.60
2023-04-18T04:34:34.507Z,7.75
2023-04-18T04:37:01.588Z,8.04
2023-04-18T04:39:28.390Z,8.29
2023-04-18T04:41:55.523Z,8.47
2023-04-18T04:44:26.077Z,8.72
2023-04-18T04:46:54.604Z,8.99
2023-04-18T04:49:22.087Z,9.21
2023-04-18T04:51:49.082Z,9.45
2023-04-18T04:54:16.301Z,9.77
2023-04-18T04:56:43.316Z,10.02
2023-04-18T04:59:10.104Z,10.30
2023-04-18T05:01:45.286Z,10.62
2023-04-18T05:04:12.880Z,10.87
2023-04-18T05:06:40.354Z,11.17
2023-04-18T05:09:07.292Z,11.40
2023-04-18T05:11:34.054Z,11.66
2023-04-18T05:14:00.839Z,11.94
2023-04-18T05:16:27.645Z,12.21
2023-04-18T05:18:54.511Z,12.40
2023-04-18T05:21:21.270Z,12.69
2023-04-18T05:23:48.047Z,12.95
2023-04-18T05:26:14.938Z,13.23
2023-04-18T05:28:41.813Z,13.49
2023-04-18T05:31:08.674Z,13.79
2023-04-18T05:33:35.689Z,14.11
2023-04-18T05:36:02.710Z,14.38
2023-04-18T05:38:29.568Z,14.73
2023-04-18T05:40:57.179Z,15.01
2023-04-18T05:43:24.012Z,15.22
2023-04-18T05:45:52.749Z,15.48
2023-04-18T05:48:19.771Z,15.84
2023-04-18T05:50:46.535Z,15.92
2023-04-18T05:53:13.302Z,16.14
2023-04-18T05:55:41.118Z,16.37
2023-04-18T05:58:08.036Z,16.68
2023-04-18T06:00:35.084Z,16.99
2023-04-18T06:03:02.158Z,17.20
2023-04-18T06:05:29.522Z,17.06
2023-04-18T06:07:56.481Z,16.89
2023-04-18T06:10:23.276Z,16.86
2023-04-18T06:12:50.098Z,17.05
2023-04-18T06:15:16.941Z,17.26
2023-04-18T06:17:44.739Z,17.47
2023-04-18T06:20:11.786Z,17.64
2023-04-18T06:22:38.586Z,18.10
2023-04-18T06:25:05.887Z,18.45
2023-04-18T06:27:32.736Z,18.59
2023-04-18T06:29:59.500Z,18.78
2023-04-18T06:32:26.609Z,19.07
2023-04-18T06:34:53.613Z,19.21
2023-04-18T06:37:20.564Z,19.28
2023-04-18T06:39:47.407Z,19.23
2023-04-18T06:42:14.193Z,19.03
2023-04-18T06:44:43.082Z,18.93
2023-04-18T06:47:10.049Z,18.80
2023-04-18T06:49:37.240Z,18.46
2023-04-18T06:52:04.072Z,18.35
2023-04-18T06:54:30.903Z,18.32
2023-04-18T06:56:57.695Z,18.36
2023-04-18T06:59:24.497Z,18.83
2023-04-18T07:01:51.494Z,19.80
2023-04-18T07:04:18.834Z,20.34
2023-04-18T07:06:45.879Z,20.76
2023-04-18T07:09:12.783Z,21.13
2023-04-18T07:11:40.918Z,21.70
2023-04-18T07:14:07.836Z,21.97
2023-04-18T07:16:34.837Z,22.12
2023-04-18T07:19:01.662Z,21.97
2023-04-18T07:21:28.494Z,22.04
2023-04-18T07:23:55.440Z,21.65
2023-04-18T07:26:22.351Z,21.24
2023-04-18T07:28:49.303Z,21.56
2023-04-18T07:31:16.661Z,22.42
2023-04-18T07:33:43.789Z,23.20
2023-04-18T07:36:10.959Z,23.52
2023-04-18T07:38:37.844Z,23.62
2023-04-18T07:41:04.694Z,24.49
2023-04-18T07:43:31.668Z,24.22
2023-04-18T07:45:58.682Z,23.64
2023-04-18T07:48:26.025Z,23.52
2023-04-18T07:50:53.497Z,23.02
2023-04-18T07:53:20.315Z,22.97
2023-04-18T07:55:47.134Z,23.43
2023-04-18T07:58:14.102Z,23.58
2023-04-18T08:00:42.708Z,23.69
2023-04-18T08:03:13.015Z,23.38
2023-04-18T08:05:40.991Z,23.46
2023-04-18T08:08:08.792Z,24.43
2023-04-18T08:10:35.930Z,25.91
2023-04-18T08:13:03.031Z,26.32
2023-04-18T08:15:32.302Z,26.81
2023-04-18T08:17:59.736Z,25.99
2023-04-18T08:20:26.688Z,24.47
2023-04-18T08:23:05.647Z,23.66
2023-04-18T08:25:33.633Z,23.58
2023-04-18T08:28:00.521Z,23.64
2023-04-18T08:30:27.499Z,23.35
2023-04-18T08:32:54.372Z,23.87
2023-04-18T08:35:21.393Z,24.82
2023-04-18T08:37:48.284Z,25.35
2023-04-18T08:40:15.058Z,26.04
2023-04-18T08:42:43.410Z,26.30
2023-04-18T08:45:12.418Z,26.56
2023-04-18T08:47:39.218Z,25.77
2023-04-18T08:50:06.869Z,25.68
2023-04-18T08:52:34.428Z,25.28
2023-04-18T08:55:02.789Z,25.69
2023-04-18T08:57:31.137Z,26.42
2023-04-18T09:00:00.801Z,26.35
2023-04-18T09:02:43.919Z,25.98
2023-04-18T09:05:11.856Z,25.93
2023-04-18T09:07:38.647Z,26.16
2023-04-18T09:10:05.790Z,26.31
2023-04-18T09:12:34.619Z,25.69
2023-04-18T09:15:11.318Z,26.48
2023-04-18T09:17:41.810Z,28.04
2023-04-18T09:20:12.337Z,28.19
2023-04-18T09:22:48.611Z,28.63
2023-04-18T09:25:53.376Z,28.39
2023-04-18T09:28:23.847Z,28.04
2023-04-18T09:30:54.432Z,28.16
2023-04-18T09:33:28.687Z,28.62
2023-04-18T09:35:56.769Z,28.87
2023-04-18T09:38:39.617Z,28.97
2023-04-18T09:41:10.356Z,29.14
2023-04-18T09:43:37.249Z,29.81
2023-04-18T09:46:04.338Z,29.34
2023-04-18T09:48:31.389Z,29.10
2023-04-18T09:51:09.593Z,28.72
2023-04-18T09:53:40.071Z,28.37
2023-04-18T09:56:08.556Z,27.58
2023-04-18T09:58:35.809Z,27.78
2023-04-18T10:01:02.606Z,26.98
2023-04-18T10:03:34.825Z,26.33
2023-04-18T10:06:01.861Z,26.20
2023-04-18T10:08:28.748Z,27.71
2023-04-18T10:10:57.948Z,27.71
2023-04-18T10:13:26.329Z,27.83
2023-04-18T10:15:53.497Z,28.40
2023-04-18T10:18:23.207Z,28.47
2023-04-18T10:20:50.536Z,28.11
2023-04-18T10:23:36.572Z,28.38
2023-04-18T10:26:04.515Z,27.45
2023-04-18T10:28:53.789Z,26.97
2023-04-18T10:31:28.182Z,27.18
2023-04-18T10:34:04.772Z,27.99
2023-04-18T10:36:33.107Z,29.09
2023-04-18T10:39:21.532Z,29.64
2023-04-18T10:41:50.608Z,28.31
2023-04-18T10:44:19.466Z,28.33
2023-04-18T10:46:52.217Z,27.66
2023-04-18T10:49:25.214Z,27.54
2023-04-18T10:52:00.098Z,27.49
2023-04-18T10:54:37.836Z,27.66
2023-04-18T10:57:05.515Z,27.07
2023-04-18T10:59:33.126Z,26.85
2023-04-18T11:02:20.809Z,26.96
2023-04-18T11:04:51.866Z,27.24
2023-04-18T11:07:18.710Z,27.77
2023-04-18T11:09:55.371Z,27.51
2023-04-18T11:12:22.739Z,27.61
2023-04-18T11:14:55.376Z,27.64
2023-04-18T11:17:23.972Z,27.78
2023-04-18T11:19:51.798Z,27.75
2023-04-18T11:22:20.080Z,27.96
2023-04-18T11:24:46.912Z,27.71
2023-04-18T11:27:14.059Z,28.10
2023-04-18T11:29:40.964Z,27.76
2023-04-18T11:32:08.686Z,27.08
2023-04-18T11:34:36.041Z,26.87
2023-04-18T11:37:06.472Z,26.80
2023-04-18T11:39:42.465Z,26.87
2023-04-18T11:42:09.642Z,27.43
2023-04-18T11:44:40.732Z,27.73
2023-04-18T11:47:22.833Z,27.74
2023-04-18T11:49:58.393Z,27.81
2023-04-18T11:52:26.997Z,27.56
2023-04-18T11:54:53.854Z,27.49
2023-04-18T11:57:27.830Z,27.71
2023-04-18T11:59:59.346Z,27.47
2023-04-18T12:02:27.574Z,27.16
2023-04-18T12:04:56.420Z,26.35
2023-04-18T12:07:42.803Z,26.01
2023-04-18T12:10:30.946Z,25.83
2023-04-18T12:13:01.235Z,26.26
2023-04-18T12:15:28.884Z,26.20
2023-04-18T12:18:03.232Z,26.42
2023-04-18T12:20:46.013Z,26.48
2023-04-18T12:23:31.346Z,26.64
2023-04-18T12:26:14.807Z,26.89
2023-04-18T12:28:44.463Z,27.12
2023-04-18T12:31:11.516Z,26.90
2023-04-18T12:33:38.358Z,26.96
2023-04-18T12:36:06.203Z,27.29
2023-04-18T12:38:33.009Z,28.78
2023-04-18T12:40:59.809Z,29.82
2023-04-18T12:43:28.212Z,30.86
2023-04-18T12:45:55.395Z,31.60
2023-04-18T12:48:22.645Z,31.86
2023-04-18T12:50:49.508Z,32.25
2023-04-18T12:53:16.287Z,32.00
2023-04-18T12:55:43.137Z,31.57
2023-04-18T12:58:09.944Z,31.71
2023-04-18T13:00:37.453Z,31.74
2023-04-18T13:03:04.771Z,31.58
2023-04-18T13:05:34.095Z,30.81
2023-04-18T13:10:31.617Z,30.42
2023-04-18T13:12:58.430Z,29.29
2023-04-18T13:15:26.192Z,27.90
2023-04-18T13:17:53.248Z,27.52
2023-04-18T13:20:20.163Z,27.22
2023-04-18T13:22:47.086Z,26.93
2023-04-18T13:25:13.845Z,26.46
2023-04-18T13:27:41.895Z,25.84
2023-04-18T13:30:10.849Z,25.28
2023-04-18T13:32:39.312Z,24.30
2023-04-18T13:35:08.445Z,23.90
2023-04-18T13:37:35.722Z,23.34
2023-04-18T13:40:05.487Z,22.90
2023-04-18T13:45:20.846Z,21.78
2023-04-18T13:47:47.662Z,21.46
2023-04-18T13:50:14.581Z,21.48
2023-04-18T13:52:41.529Z,21.63
2023-04-18T13:55:10.594Z,21.63
2023-04-18T13:57:37.460Z,21.57
2023-04-18T14:00:06.650Z,21.60
2023-04-18T14:02:33.658Z,21.74
2023-04-18T14:05:01.342Z,21.83
2023-04-18T14:07:28.216Z,21.83
2023-04-18T14:09:55.029Z,21.80
2023-04-18T14:12:49.372Z,21.80
2023-04-18T14:18:44.434Z,21.40
2023-04-18T14:21:11.217Z,21.13
2023-04-18T14:23:38.016Z,20.87
2023-04-18T14:26:05.609Z,20.65
2023-04-18T14:28:32.394Z,20.51
2023-04-18T14:31:02.126Z,20.17
2023-04-18T14:33:29.422Z,20.00
2023-04-18T14:35:56.481Z,19.89
2023-04-18T14:38:23.282Z,19.84
2023-04-18T14:40:50.120Z,19.86
2023-04-18T14:43:17.019Z,20.04
2023-04-18T14:45:43.825Z,20.16
2023-04-18T14:48:10.662Z,20.25
2023-04-18T14:50:38.722Z,20.19
2023-04-18T14:53:06.221Z,20.06
2023-04-18T14:55:33.988Z,19.83
2023-04-18T14:58:01.314Z,19.68
2023-04-18T15:00:28.999Z,19.59
2023-04-18T15:02:56.163Z,19.39
2023-04-18T15:05:26.634Z,19.29
2023-04-18T15:07:53.573Z,19.21
2023-04-18T15:10:22.485Z,19.37
2023-04-18T15:12:51.206Z,19.32
2023-04-18T15:15:19.522Z,19.18
2023-04-18T15:17:46.484Z,19.05
2023-04-18T15:20:13.377Z,19.03
2023-04-18T15:22:40.208Z,18.89
2023-04-18T15:25:07.797Z,18.75
2023-04-18T15:27:34.716Z,18.62
2023-04-18T15:30:02.434Z,18.39
2023-04-18T15:32:29.341Z,18.06
2023-04-18T15:34:56.346Z,17.77
2023-04-18T15:37:23.722Z,17.38
2023-04-18T15:39:50.649Z,17.06
2023-04-18T15:42:17.519Z,16.81
2023-04-18T15:44:44.438Z,16.57
2023-04-18T15:47:11.402Z,16.38
2023-04-18T15:49:38.402Z,16.16
2023-04-18T15:52:06.945Z,15.99
2023-04-18T15:54:33.937Z,15.84
2023-04-18T15:57:00.802Z,15.67
2023-04-18T15:59:27.939Z,15.49
2023-04-18T16:01:54.880Z,15.33
2023-04-18T16:04:21.964Z,15.19
2023-04-18T16:06:48.756Z,15.02
2023-04-18T16:09:16.376Z,14.80
2023-04-18T16:11:43.140Z,14.56
2023-04-18T16:14:09.942Z,14.29
2023-04-18T16:16:36.800Z,14.06
2023-04-18T16:19:04.585Z,13.80
2023-04-18T16:21:32.590Z,13.57
2023-04-18T16:23:59.936Z,13.38
2023-04-18T16:26:26.773Z,13.25
2023-04-18T16:28:53.617Z,13.12
2023-04-18T16:31:20.554Z,13.00
2023-04-18T16:33:47.467Z,12.94
2023-04-18T16:36:14.517Z,12.77
2023-04-18T16:38:41.515Z,12.71
2023-04-18T16:41:08.333Z,12.65
2023-04-18T16:43:38.211Z,12.55
2023-04-18T16:46:05.323Z,12.46
2023-04-18T16:48:32.227Z,12.37
2023-04-18T16:50:59.122Z,12.25
2023-04-18T16:53:26.020Z,12.12
2023-04-18T16:55:55.987Z,12.02
2023-04-18T16:58:23.731Z,11.90
2023-04-18T17:00:50.584Z,11.76
2023-04-18T17:03:17.540Z,11.60
2023-04-18T17:05:44.728Z,11.45
2023-04-18T17:08:11.655Z,11.33
2023-04-18T17:10:38.481Z,11.18
2023-04-18T17:13:05.296Z,11.04
2023-04-18T17:15:32.158Z,10.88
2023-04-18T17:18:01.186Z,10.71
2023-04-18T17:20:28.518Z,10.52
2023-04-18T17:22:55.644Z,10.36
2023-04-18T17:25:22.531Z,10.20
2023-04-18T17:27:49.396Z,9.99
2023-04-18T17:30:16.295Z,9.83
2023-04-18T17:32:46.141Z,9.63
2023-04-18T17:35:14.755Z,9.46
2023-04-18T17:37:42.543Z,9.26
2023-04-18T17:40:10.248Z,9.19
2023-04-18T17:42:37.139Z,9.05
2023-04-18T17:45:05.382Z,8.94
2023-04-18T17:47:33.594Z,8.86
2023-04-18T17:50:00.923Z,8.76
2023-04-18T17:52:30.737Z,8.69
2023-04-18T17:54:58.658Z,8.64
2023-04-18T17:57:26.733Z,8.55
2023-04-18T17:59:53.636Z,8.49
2023-04-18T18:02:20.541Z,8.40
2023-04-18T18:04:47.698Z,8.27
2023-04-18T18:07:14.619Z,8.22
2023-04-18T18:09:45.612Z,8.14
2023-04-18T18:12:12.499Z,8.06
2023-04-18T18:14:40.612Z,8.02
2023-04-18T18:17:07.572Z,7.93
2023-04-18T18:19:37.561Z,7.94
2023-04-18T18:22:04.359Z,7.81
2023-04-18T18:24:31.283Z,7.78
2023-04-18T18:26:59.035Z,7.72
2023-04-18T18:29:26.165Z,7.62
2023-04-18T18:31:53.026Z,7.59
2023-04-18T18:34:21.261Z,7.50
2023-04-18T18:36:48.086Z,7.43
2023-04-18T18:39:16.551Z,7.34
2023-04-18T18:41:43.506Z,7.23
2023-04-18T18:44:10.494Z,7.19
2023-04-18T18:46:37.423Z,7.13
2023-04-18T18:49:04.221Z,7.04
2023-04-18T18:51:31.069Z,7.01
2023-04-18T18:53:58.046Z,6.93
2023-04-18T18:56:24.838Z,6.92
2023-04-18T18:58:53.817Z,6.85
2023-04-18T19:01:21.142Z,6.78
2023-04-18T19:03:48.325Z,6.73
2023-04-18T19:06:15.423Z,6.70
2023-04-18T19:08:42.252Z,6.66
2023-04-18T19:11:09.694Z,6.60
2023-04-18T19:13:36.583Z,6.52
2023-04-18T19:16:03.470Z,6.47
2023-04-18T19:18:30.421Z,6.44
2023-04-18T19:20:57.317Z,6.43
2023-04-18T19:23:25.318Z,6.37
2023-04-18T19:25:52.319Z,6.31
2023-04-18T19:28:19.245Z,6.27
2023-04-18T19:30:46.550Z,6.24
2023-04-18T19:33:13.744Z,6.19
2023-04-18T19:35:40.735Z,6.20
2023-04-18T19:38:07.670Z,6.15
2023-04-18T19:40:34.438Z,6.10
2023-04-18T19:43:01.270Z,6.01
2023-04-18T19:45:28.078Z,6.05
2023-04-18T19:47:54.971Z,5.95
2023-04-18T19:50:21.813Z,5.96
2023-04-18T19:52:48.630Z,5.93
2023-04-18T19:55:15.659Z,5.92
2023-04-18T19:57:43.394Z,5.93
2023-04-18T20:00:11.793Z,5.89
2023-04-18T20:02:42.137Z,5.87
2023-04-18T20:05:09.743Z,5.81
2023-04-18T20:07:37.052Z,5.83
2023-04-18T20:10:04.583Z,5.78
2023-04-18T20:12:31.521Z,5.77
2023-04-18T20:14:59.073Z,5.71
2023-04-18T20:17:26.315Z,5.72
2023-04-18T20:19:53.435Z,5.70
2023-04-18T20:22:20.309Z,5.65
2023-04-18T20:24:48.777Z,5.64
2023-04-18T20:27:15.666Z,5.58
2023-04-18T20:29:42.504Z,5.56
2023-04-18T20:32:11.315Z,5.50
2023-04-18T20:34:38.133Z,5.47
2023-04-18T20:37:07.533Z,5.40
2023-04-18T20:39:34.395Z,5.34
2023-04-18T20:42:04.247Z,5.36
2023-04-18T20:44:33.536Z,5.34
2023-04-18T20:47:00.315Z,5.29
2023-04-18T20:49:27.138Z,5.25
2023-04-18T20:51:53.940Z,5.21
2023-04-18T20:54:20.753Z,5.12
2023-04-18T20:56:47.679Z,5.08
2023-04-18T20:59:14.478Z,5.06
2023-04-18T21:01:41.383Z,5.01
2023-04-18T21:04:08.389Z,4.96
2023-04-18T21:06:36.737Z,4.97
2023-04-18T21:09:04.324Z,4.91
2023-04-18T21:11:31.316Z,4.83
2023-04-18T21:13:58.122Z,4.91
2023-04-18T21:16:25.028Z,4.87
2023-04-18T21:18:53.217Z,4.83
2023-04-18T21:21:20.096Z,4.75
2023-04-18T21:23:46.860Z,4.78
2023-04-18T21:26:14.100Z,4.72
2023-04-18T21:29:01.660Z,4.74
2023-04-18T21:31:30.012Z,4.68
2023-04-18T21:33:58.042Z,4.67
2023-04-18T21:36:27.032Z,4.67
2023-04-18T21:38:58.481Z,4.66
2023-04-18T21:41:25.423Z,4.64
2023-04-18T21:43:52.326Z,4.61
2023-04-18T21:46:19.387Z,4.65
2023-04-18T21:48:46.877Z,4.62
2023-04-18T21:51:14.864Z,4.62
2023-04-18T21:53:41.935Z,4.58
2023-04-18T21:56:08.833Z,4.53
2023-04-18T21:58:35.684Z,4.52
2023-04-18T22:01:02.752Z,4.52
2023-04-18T22:03:29.878Z,4.49
2023-04-18T22:05:57.567Z,4.52
2023-04-18T22:08:25.914Z,4.45
2023-04-18T22:10:58.342Z,4.44
2023-04-18T22:13:25.734Z,4.45
2023-04-18T22:15:52.590Z,4.44
2023-04-18T22:18:19.448Z,4.44
2023-04-18T22:20:47.029Z,4.45
2023-04-18T22:23:13.996Z,4.47
2023-04-18T22:25:41.070Z,4.45
2023-04-18T22:28:07.965Z,4.48
2023-04-18T22:30:34.836Z,4.43
2023-04-18T22:33:01.792Z,4.49
2023-04-18T22:35:28.637Z,4.46
2023-04-18T22:37:55.870Z,4.48
2023-04-18T22:40:22.663Z,4.49
2023-04-18T22:42:51.983Z,4.51
2023-04-18T22:45:19.499Z,4.57
2023-04-18T22:47:46.821Z,4.55
2023-04-18T22:50:14.103Z,4.53
2023-04-18T22:52:41.390Z,4.59
2023-04-18T22:55:08.887Z,4.59
2023-04-18T22:57:35.773Z,4.58
2023-04-18T23:00:04.263Z,4.61
2023-04-18T23:02:31.280Z,4.61
2023-04-18T23:04:59.049Z,4.63
2023-04-18T23:07:25.923Z,4.67
2023-04-18T23:09:52.723Z,4.67
2023-04-18T23:12:19.546Z,4.72
2023-04-18T23:14:46.411Z,4.70
2023-04-18T23:17:13.203Z,4.74
2023-04-18T23:19:40.184Z,4.79
2023-04-18T23:22:06.964Z,4.77
2023-04-18T23:24:33.785Z,4.82
2023-04-18T23:27:01.623Z,4.89
2023-04-18T23:29:28.444Z,4.88
2023-04-18T23:31:55.376Z,4.91
2023-04-18T23:34:22.280Z,4.96
2023-04-18T23:36:49.108Z,4.97
2023-04-18T23:39:18.544Z,5.06
2023-04-18T23:41:45.746Z,5.11
2023-04-18T23:44:12.756Z,5.20
2023-04-18T23:46:39.659Z,5.33
2023-04-18T23:49:06.602Z,5.42
2023-04-18T23:51:33.707Z,5.55
2023-04-18T23:54:00.476Z,5.67
2023-04-18T23:56:27.541Z,5.73
2023-04-18T23:58:54.348Z,5.87
